sensor_id;sensor_type;location;lat;lon;timestamp;temperature;humidity
41944;DHT22;27636;52.610;13.244;2022-09-16T00:01:02;11.40;99.90
41944;DHT22;27636;52.610;13.244;2022-09-16T00:06:18;11.40;99.90
41944;DHT22;27636;52.610;13.244;2022-09-16T00:11:22;11.40;99.90
41944;DHT22;27636;52.610;13.244;2022-09-16T00:16:28;11.40;99.90
41944;DHT22;27636;52.610;13.244;2022-09-16T00:21:31;11.30;99.90
41944;DHT22;27636;52.610;13.244;2022-09-16T00:26:34;11.20;99.90
41944;DHT22;27636;52.610;13.244;2022-09-16T00:31:39;11.20;99.90
41944;DHT22;27636;52.610;13.244;2022-09-16T00:36:42;11.20;99.90
41944;DHT22;27636;52.610;13.244;2022-09-16T00:41:45;11.10;99.90
41944;DHT22;27636;52.610;13.244;2022-09-16T00:46:49;10.90;99.90
41944;DHT22;27636;52.610;13.244;2022-09-16T00:51:58;10.80;99.90
41944;DHT22;27636;52.610;13.244;2022-09-16T00:57:02;10.80;99.90
41944;DHT22;27636;52.610;13.244;2022-09-16T01:02:10;10.90;99.90
41944;DHT22;27636;52.610;13.244;2022-09-16T01:07:15;10.90;99.90
41944;DHT22;27636;52.610;13.244;2022-09-16T01:12:19;10.90;99.90
41944;DHT22;27636;52.610;13.244;2022-09-16T01:17:34;10.80;99.90
41944;DHT22;27636;52.610;13.244;2022-09-16T01:22:49;10.70;99.90
41944;DHT22;27636;52.610;13.244;2022-09-16T01:28:28;10.60;99.90
41944;DHT22;27636;52.610;13.244;2022-09-16T01:33:45;10.60;99.90
41944;DHT22;27636;52.610;13.244;2022-09-16T01:39:00;10.50;99.90
41944;DHT22;27636;52.610;13.244;2022-09-16T01:44:16;10.50;99.90
41944;DHT22;27636;52.610;13.244;2022-09-16T01:49:29;10.40;99.90
41944;DHT22;27636;52.610;13.244;2022-09-16T01:54:37;10.40;99.90
41944;DHT22;27636;52.610;13.244;2022-09-16T01:59:45;10.50;99.90
41944;DHT22;27636;52.610;13.244;2022-09-16T02:04:54;10.50;99.90
41944;DHT22;27636;52.610;13.244;2022-09-16T02:10:03;10.30;99.90
41944;DHT22;27636;52.610;13.244;2022-09-16T02:15:11;10.40;99.90
41944;DHT22;27636;52.610;13.244;2022-09-16T02:20:25;10.40;99.90
41944;DHT22;27636;52.610;13.244;2022-09-16T02:25:32;10.30;99.90
41944;DHT22;27636;52.610;13.244;2022-09-16T02:30:36;10.30;99.90
41944;DHT22;27636;52.610;13.244;2022-09-16T02:35:43;10.40;99.90
41944;DHT22;27636;52.610;13.244;2022-09-16T02:40:51;10.30;99.90
41944;DHT22;27636;52.610;13.244;2022-09-16T02:46:05;10.20;99.90
41944;DHT22;27636;52.610;13.244;2022-09-16T02:51:27;10.50;99.90
41944;DHT22;27636;52.610;13.244;2022-09-16T02:56:34;10.40;99.90
41944;DHT22;27636;52.610;13.244;2022-09-16T03:01:41;10.20;99.90
41944;DHT22;27636;52.610;13.244;2022-09-16T03:06:46;10.40;99.90
41944;DHT22;27636;52.610;13.244;2022-09-16T03:17:27;10.40;99.90
41944;DHT22;27636;52.610;13.244;2022-09-16T03:22:43;10.40;99.90
41944;DHT22;27636;52.610;13.244;2022-09-16T03:27:51;10.40;99.90
41944;DHT22;27636;52.610;13.244;2022-09-16T03:33:00;10.40;99.90
41944;DHT22;27636;52.610;13.244;2022-09-16T03:38:09;10.40;99.90
41944;DHT22;27636;52.610;13.244;2022-09-16T03:43:14;10.40;99.90
41944;DHT22;27636;52.610;13.244;2022-09-16T03:48:18;10.30;99.90
41944;DHT22;27636;52.610;13.244;2022-09-16T03:53:22;10.30;99.90
41944;DHT22;27636;52.610;13.244;2022-09-16T03:58:25;10.40;99.90
41944;DHT22;27636;52.610;13.244;2022-09-16T04:03:28;10.30;99.90
41944;DHT22;27636;52.610;13.244;2022-09-16T04:08:36;10.30;99.90
41944;DHT22;27636;52.610;13.244;2022-09-16T04:13:41;10.20;99.90
41944;DHT22;27636;52.610;13.244;2022-09-16T04:18:44;10.20;99.90
41944;DHT22;27636;52.610;13.244;2022-09-16T04:23:49;10.10;99.90
41944;DHT22;27636;52.610;13.244;2022-09-16T04:28:52;10.20;99.90
41944;DHT22;27636;52.610;13.244;2022-09-16T04:34:00;10.10;99.90
41944;DHT22;27636;52.610;13.244;2022-09-16T04:39:04;10.00;99.90
41944;DHT22;27636;52.610;13.244;2022-09-16T04:44:09;9.90;99.90
41944;DHT22;27636;52.610;13.244;2022-09-16T04:49:12;9.90;99.90
41944;DHT22;27636;52.610;13.244;2022-09-16T04:54:17;10.10;99.90
41944;DHT22;27636;52.610;13.244;2022-09-16T04:59:20;10.10;99.90
41944;DHT22;27636;52.610;13.244;2022-09-16T05:04:23;10.00;99.90
41944;DHT22;27636;52.610;13.244;2022-09-16T05:09:28;10.00;99.90
41944;DHT22;27636;52.610;13.244;2022-09-16T05:14:31;10.00;99.90
41944;DHT22;27636;52.610;13.244;2022-09-16T05:19:34;10.10;99.90
41944;DHT22;27636;52.610;13.244;2022-09-16T05:24:38;10.30;99.90
41944;DHT22;27636;52.610;13.244;2022-09-16T05:29:41;10.40;99.90
41944;DHT22;27636;52.610;13.244;2022-09-16T05:34:44;10.50;99.90
41944;DHT22;27636;52.610;13.244;2022-09-16T05:39:49;10.80;99.90
41944;DHT22;27636;52.610;13.244;2022-09-16T05:44:52;11.00;99.90
41944;DHT22;27636;52.610;13.244;2022-09-16T05:49:55;11.10;99.90
41944;DHT22;27636;52.610;13.244;2022-09-16T05:54:59;11.10;99.90
41944;DHT22;27636;52.610;13.244;2022-09-16T06:00:03;11.40;99.90
41944;DHT22;27636;52.610;13.244;2022-09-16T06:05:12;11.60;99.90
41944;DHT22;27636;52.610;13.244;2022-09-16T06:10:16;11.90;99.90
41944;DHT22;27636;52.610;13.244;2022-09-16T06:15:20;12.40;99.90
41944;DHT22;27636;52.610;13.244;2022-09-16T06:20:23;13.00;99.90
41944;DHT22;27636;52.610;13.244;2022-09-16T06:25:28;13.60;99.90
41944;DHT22;27636;52.610;13.244;2022-09-16T06:30:31;14.30;99.90
41944;DHT22;27636;52.610;13.244;2022-09-16T06:35:34;13.50;99.90
41944;DHT22;27636;52.610;13.244;2022-09-16T06:40:38;13.60;99.90
41944;DHT22;27636;52.610;13.244;2022-09-16T06:45:41;14.50;99.90
41944;DHT22;27636;52.610;13.244;2022-09-16T06:50:45;13.70;99.90
41944;DHT22;27636;52.610;13.244;2022-09-16T06:55:49;13.70;99.90
41944;DHT22;27636;52.610;13.244;2022-09-16T07:00:52;14.00;99.90
41944;DHT22;27636;52.610;13.244;2022-09-16T07:05:56;14.30;99.90
41944;DHT22;27636;52.610;13.244;2022-09-16T07:11:02;15.70;99.90
41944;DHT22;27636;52.610;13.244;2022-09-16T07:16:07;15.40;99.90
41944;DHT22;27636;52.610;13.244;2022-09-16T07:21:17;15.60;99.90
41944;DHT22;27636;52.610;13.244;2022-09-16T07:26:23;17.20;99.90
41944;DHT22;27636;52.610;13.244;2022-09-16T07:31:33;17.90;99.90
41944;DHT22;27636;52.610;13.244;2022-09-16T07:36:38;17.80;99.90
41944;DHT22;27636;52.610;13.244;2022-09-16T07:41:44;18.70;99.90
41944;DHT22;27636;52.610;13.244;2022-09-16T07:46:48;20.00;98.40
41944;DHT22;27636;52.610;13.244;2022-09-16T07:51:54;20.30;96.30
41944;DHT22;27636;52.610;13.244;2022-09-16T07:56:58;20.00;95.50
41944;DHT22;27636;52.610;13.244;2022-09-16T08:02:01;18.50;97.70
41944;DHT22;27636;52.610;13.244;2022-09-16T08:07:05;17.90;99.90
41944;DHT22;27636;52.610;13.244;2022-09-16T08:12:10;18.30;99.80
41944;DHT22;27636;52.610;13.244;2022-09-16T08:17:14;18.20;99.90
41944;DHT22;27636;52.610;13.244;2022-09-16T08:22:18;18.00;99.90
41944;DHT22;27636;52.610;13.244;2022-09-16T08:27:23;19.60;97.50
41944;DHT22;27636;52.610;13.244;2022-09-16T08:32:26;18.90;95.60
41944;DHT22;27636;52.610;13.244;2022-09-16T08:37:29;18.00;97.30
41944;DHT22;27636;52.610;13.244;2022-09-16T08:42:52;17.00;99.90
41944;DHT22;27636;52.610;13.244;2022-09-16T08:48:04;16.70;99.90
41944;DHT22;27636;52.610;13.244;2022-09-16T08:53:14;16.80;99.90
41944;DHT22;27636;52.610;13.244;2022-09-16T08:58:22;16.90;99.90
41944;DHT22;27636;52.610;13.244;2022-09-16T09:03:34;16.80;99.90
41944;DHT22;27636;52.610;13.244;2022-09-16T09:08:44;17.60;99.90
41944;DHT22;27636;52.610;13.244;2022-09-16T09:14:14;17.00;97.40
41944;DHT22;27636;52.610;13.244;2022-09-16T09:19:38;16.50;99.90
41944;DHT22;27636;52.610;13.244;2022-09-16T09:24:57;17.40;99.90
41944;DHT22;27636;52.610;13.244;2022-09-16T09:30:12;19.50;92.80
41944;DHT22;27636;52.610;13.244;2022-09-16T09:35:26;20.60;87.00
41944;DHT22;27636;52.610;13.244;2022-09-16T09:40:38;19.40;90.20
41944;DHT22;27636;52.610;13.244;2022-09-16T09:45:58;20.80;83.40
41944;DHT22;27636;52.610;13.244;2022-09-16T09:51:14;20.60;81.10
41944;DHT22;27636;52.610;13.244;2022-09-16T09:56:22;19.70;80.20
41944;DHT22;27636;52.610;13.244;2022-09-16T10:01:27;18.60;83.50
41944;DHT22;27636;52.610;13.244;2022-09-16T10:06:33;18.50;85.90
41944;DHT22;27636;52.610;13.244;2022-09-16T10:11:45;18.90;85.60
41944;DHT22;27636;52.610;13.244;2022-09-16T10:16:51;17.50;88.20
41944;DHT22;27636;52.610;13.244;2022-09-16T10:22:06;17.00;91.20
41944;DHT22;27636;52.610;13.244;2022-09-16T10:27:19;16.80;90.60
41944;DHT22;27636;52.610;13.244;2022-09-16T10:32:24;17.70;90.60
41944;DHT22;27636;52.610;13.244;2022-09-16T10:37:27;18.20;85.60
41944;DHT22;27636;52.610;13.244;2022-09-16T10:42:30;19.20;80.90
41944;DHT22;27636;52.610;13.244;2022-09-16T10:47:35;20.40;75.50
41944;DHT22;27636;52.610;13.244;2022-09-16T10:52:41;20.50;76.60
41944;DHT22;27636;52.610;13.244;2022-09-16T10:57:45;18.40;81.40
41944;DHT22;27636;52.610;13.244;2022-09-16T11:03:23;19.50;80.70
41944;DHT22;27636;52.610;13.244;2022-09-16T11:08:42;20.20;75.10
41944;DHT22;27636;52.610;13.244;2022-09-16T11:13:53;19.50;74.80
41944;DHT22;27636;52.610;13.244;2022-09-16T11:19:06;18.80;77.60
41944;DHT22;27636;52.610;13.244;2022-09-16T11:24:31;18.40;78.90
41944;DHT22;27636;52.610;13.244;2022-09-16T11:29:53;18.40;82.10
41944;DHT22;27636;52.610;13.244;2022-09-16T11:35:18;19.00;77.70
41944;DHT22;27636;52.610;13.244;2022-09-16T11:40:32;20.50;76.50
41944;DHT22;27636;52.610;13.244;2022-09-16T11:45:44;21.30;68.40
41944;DHT22;27636;52.610;13.244;2022-09-16T11:50:56;21.00;68.70
41944;DHT22;27636;52.610;13.244;2022-09-16T11:56:05;20.90;67.90
41944;DHT22;27636;52.610;13.244;2022-09-16T12:01:31;19.00;73.50
41944;DHT22;27636;52.610;13.244;2022-09-16T12:06:51;18.90;77.20
41944;DHT22;27636;52.610;13.244;2022-09-16T12:12:02;20.20;75.30
41944;DHT22;27636;52.610;13.244;2022-09-16T12:17:12;21.20;69.50
41944;DHT22;27636;52.610;13.244;2022-09-16T12:22:20;20.70;67.20
41944;DHT22;27636;52.610;13.244;2022-09-16T12:27:33;19.60;68.50
41944;DHT22;27636;52.610;13.244;2022-09-16T12:32:44;19.60;67.70
41944;DHT22;27636;52.610;13.244;2022-09-16T12:37:52;19.80;67.70
41944;DHT22;27636;52.610;13.244;2022-09-16T12:43:24;21.20;60.60
41944;DHT22;27636;52.610;13.244;2022-09-16T12:48:56;20.10;63.30
41944;DHT22;27636;52.610;13.244;2022-09-16T13:00:18;20.00;67.40
41944;DHT22;27636;52.610;13.244;2022-09-16T13:05:26;20.10;70.20
41944;DHT22;27636;52.610;13.244;2022-09-16T13:10:39;20.90;68.50
41944;DHT22;27636;52.610;13.244;2022-09-16T13:16:00;21.10;65.40
41944;DHT22;27636;52.610;13.244;2022-09-16T13:21:06;21.00;62.00
41944;DHT22;27636;52.610;13.244;2022-09-16T13:26:15;18.90;67.00
41944;DHT22;27636;52.610;13.244;2022-09-16T13:31:27;18.60;71.70
41944;DHT22;27636;52.610;13.244;2022-09-16T13:36:32;18.50;69.00
41944;DHT22;27636;52.610;13.244;2022-09-16T13:41:39;18.90;68.50
41944;DHT22;27636;52.610;13.244;2022-09-16T13:46:43;20.30;64.60
41944;DHT22;27636;52.610;13.244;2022-09-16T13:51:48;20.80;61.40
41944;DHT22;27636;52.610;13.244;2022-09-16T13:57:06;20.90;59.40
41944;DHT22;27636;52.610;13.244;2022-09-16T14:02:18;20.30;64.60
41944;DHT22;27636;52.610;13.244;2022-09-16T14:07:36;20.10;61.50
41944;DHT22;27636;52.610;13.244;2022-09-16T14:12:48;18.70;67.10
41944;DHT22;27636;52.610;13.244;2022-09-16T14:17:57;18.50;68.70
41944;DHT22;27636;52.610;13.244;2022-09-16T14:23:03;18.10;69.30
41944;DHT22;27636;52.610;13.244;2022-09-16T14:28:14;17.60;70.60
41944;DHT22;27636;52.610;13.244;2022-09-16T14:33:22;18.70;63.00
41944;DHT22;27636;52.610;13.244;2022-09-16T14:38:33;19.60;62.70
41944;DHT22;27636;52.610;13.244;2022-09-16T14:43:49;19.20;64.50
41944;DHT22;27636;52.610;13.244;2022-09-16T14:48:53;19.10;62.60
41944;DHT22;27636;52.610;13.244;2022-09-16T14:53:58;19.00;62.90
41944;DHT22;27636;52.610;13.244;2022-09-16T14:59:19;18.70;64.50
41944;DHT22;27636;52.610;13.244;2022-09-16T15:04:23;18.40;68.20
41944;DHT22;27636;52.610;13.244;2022-09-16T15:09:33;17.90;68.20
41944;DHT22;27636;52.610;13.244;2022-09-16T15:14:40;17.50;68.40
41944;DHT22;27636;52.610;13.244;2022-09-16T15:19:48;17.40;70.50
41944;DHT22;27636;52.610;13.244;2022-09-16T15:24:54;17.60;67.90
41944;DHT22;27636;52.610;13.244;2022-09-16T15:30:00;17.70;68.50
41944;DHT22;27636;52.610;13.244;2022-09-16T15:35:17;18.10;69.30
41944;DHT22;27636;52.610;13.244;2022-09-16T15:40:29;18.30;68.90
41944;DHT22;27636;52.610;13.244;2022-09-16T15:45:35;18.30;72.40
41944;DHT22;27636;52.610;13.244;2022-09-16T15:50:45;18.20;72.50
41944;DHT22;27636;52.610;13.244;2022-09-16T15:55:56;17.90;73.80
41944;DHT22;27636;52.610;13.244;2022-09-16T16:01:04;17.50;74.90
41944;DHT22;27636;52.610;13.244;2022-09-16T16:06:09;17.40;75.20
41944;DHT22;27636;52.610;13.244;2022-09-16T16:11:13;16.90;77.10
41944;DHT22;27636;52.610;13.244;2022-09-16T16:16:18;16.50;81.40
41944;DHT22;27636;52.610;13.244;2022-09-16T16:21:22;16.40;83.10
41944;DHT22;27636;52.610;13.244;2022-09-16T16:26:25;16.40;82.40
41944;DHT22;27636;52.610;13.244;2022-09-16T16:31:29;16.30;83.20
41944;DHT22;27636;52.610;13.244;2022-09-16T16:36:34;16.20;84.50
41944;DHT22;27636;52.610;13.244;2022-09-16T16:41:37;16.00;82.90
41944;DHT22;27636;52.610;13.244;2022-09-16T16:46:42;15.80;81.30
41944;DHT22;27636;52.610;13.244;2022-09-16T16:51:47;15.70;82.10
41944;DHT22;27636;52.610;13.244;2022-09-16T16:56:52;15.70;81.00
41944;DHT22;27636;52.610;13.244;2022-09-16T17:01:57;15.60;79.60
41944;DHT22;27636;52.610;13.244;2022-09-16T17:07:00;15.60;77.00
41944;DHT22;27636;52.610;13.244;2022-09-16T17:12:24;15.30;78.40
41944;DHT22;27636;52.610;13.244;2022-09-16T17:17:29;15.10;79.30
41944;DHT22;27636;52.610;13.244;2022-09-16T17:22:33;15.00;80.10
41944;DHT22;27636;52.610;13.244;2022-09-16T17:27:37;14.70;81.30
41944;DHT22;27636;52.610;13.244;2022-09-16T17:32:41;14.50;82.00
41944;DHT22;27636;52.610;13.244;2022-09-16T17:37:44;14.50;82.20
41944;DHT22;27636;52.610;13.244;2022-09-16T17:42:50;14.30;83.70
41944;DHT22;27636;52.610;13.244;2022-09-16T17:47:55;13.90;85.30
41944;DHT22;27636;52.610;13.244;2022-09-16T17:53:00;13.60;86.60
41944;DHT22;27636;52.610;13.244;2022-09-16T17:58:03;13.50;88.40
41944;DHT22;27636;52.610;13.244;2022-09-16T18:03:08;13.60;87.80
41944;DHT22;27636;52.610;13.244;2022-09-16T18:08:12;14.00;87.90
41944;DHT22;27636;52.610;13.244;2022-09-16T18:13:15;14.20;88.70
41944;DHT22;27636;52.610;13.244;2022-09-16T18:18:20;14.30;90.20
41944;DHT22;27636;52.610;13.244;2022-09-16T18:23:24;14.30;91.00
41944;DHT22;27636;52.610;13.244;2022-09-16T18:28:28;14.40;91.20
41944;DHT22;27636;52.610;13.244;2022-09-16T18:33:33;14.40;92.50
41944;DHT22;27636;52.610;13.244;2022-09-16T18:38:36;14.40;92.70
41944;DHT22;27636;52.610;13.244;2022-09-16T18:43:42;14.30;93.60
41944;DHT22;27636;52.610;13.244;2022-09-16T18:48:48;14.20;94.20
41944;DHT22;27636;52.610;13.244;2022-09-16T18:53:53;14.20;94.80
41944;DHT22;27636;52.610;13.244;2022-09-16T18:58:59;14.30;95.90
41944;DHT22;27636;52.610;13.244;2022-09-16T19:04:26;14.10;97.80
41944;DHT22;27636;52.610;13.244;2022-09-16T19:09:30;13.90;99.90
41944;DHT22;27636;52.610;13.244;2022-09-16T19:14:34;13.50;99.90
41944;DHT22;27636;52.610;13.244;2022-09-16T19:19:38;13.40;99.90
41944;DHT22;27636;52.610;13.244;2022-09-16T19:24:42;13.10;99.90
41944;DHT22;27636;52.610;13.244;2022-09-16T19:29:46;12.80;99.90
41944;DHT22;27636;52.610;13.244;2022-09-16T19:34:51;12.60;99.90
41944;DHT22;27636;52.610;13.244;2022-09-16T19:39:54;12.30;99.90
41944;DHT22;27636;52.610;13.244;2022-09-16T19:44:57;12.00;99.90
41944;DHT22;27636;52.610;13.244;2022-09-16T19:50:02;11.80;99.90
41944;DHT22;27636;52.610;13.244;2022-09-16T19:55:07;11.70;99.90
41944;DHT22;27636;52.610;13.244;2022-09-16T20:00:11;11.60;99.90
41944;DHT22;27636;52.610;13.244;2022-09-16T20:05:17;11.50;99.90
41944;DHT22;27636;52.610;13.244;2022-09-16T20:10:21;11.40;99.90
41944;DHT22;27636;52.610;13.244;2022-09-16T20:15:24;11.30;99.90
41944;DHT22;27636;52.610;13.244;2022-09-16T20:20:29;11.30;99.90
41944;DHT22;27636;52.610;13.244;2022-09-16T20:25:32;11.20;99.90
41944;DHT22;27636;52.610;13.244;2022-09-16T20:30:36;11.10;99.90
41944;DHT22;27636;52.610;13.244;2022-09-16T20:35:41;11.00;99.90
41944;DHT22;27636;52.610;13.244;2022-09-16T20:40:44;11.00;99.90
41944;DHT22;27636;52.610;13.244;2022-09-16T20:45:48;11.00;99.90
41944;DHT22;27636;52.610;13.244;2022-09-16T20:50:53;11.10;99.90
41944;DHT22;27636;52.610;13.244;2022-09-16T20:55:59;11.00;99.90
41944;DHT22;27636;52.610;13.244;2022-09-16T21:01:04;11.10;99.90
41944;DHT22;27636;52.610;13.244;2022-09-16T21:06:10;11.00;99.90
41944;DHT22;27636;52.610;13.244;2022-09-16T21:11:15;10.90;99.90
41944;DHT22;27636;52.610;13.244;2022-09-16T21:16:19;11.00;99.90
41944;DHT22;27636;52.610;13.244;2022-09-16T21:21:25;10.90;99.90
41944;DHT22;27636;52.610;13.244;2022-09-16T21:26:31;11.00;99.90
41944;DHT22;27636;52.610;13.244;2022-09-16T21:31:35;11.10;99.90
41944;DHT22;27636;52.610;13.244;2022-09-16T21:36:41;11.20;99.90
41944;DHT22;27636;52.610;13.244;2022-09-16T21:41:47;11.20;99.90
41944;DHT22;27636;52.610;13.244;2022-09-16T21:46:50;11.10;99.90
41944;DHT22;27636;52.610;13.244;2022-09-16T21:51:57;11.30;99.90
41944;DHT22;27636;52.610;13.244;2022-09-16T21:57:00;11.30;99.90
41944;DHT22;27636;52.610;13.244;2022-09-16T22:02:03;11.30;99.90
41944;DHT22;27636;52.610;13.244;2022-09-16T22:07:08;11.30;99.90
41944;DHT22;27636;52.610;13.244;2022-09-16T22:12:12;11.30;99.90
41944;DHT22;27636;52.610;13.244;2022-09-16T22:17:15;11.40;99.90
41944;DHT22;27636;52.610;13.244;2022-09-16T22:22:21;11.40;99.90
41944;DHT22;27636;52.610;13.244;2022-09-16T22:27:23;11.40;99.90
41944;DHT22;27636;52.610;13.244;2022-09-16T22:32:26;11.40;99.90
41944;DHT22;27636;52.610;13.244;2022-09-16T22:37:31;11.40;99.90
41944;DHT22;27636;52.610;13.244;2022-09-16T22:42:34;11.40;99.90
41944;DHT22;27636;52.610;13.244;2022-09-16T22:47:38;11.40;99.90
41944;DHT22;27636;52.610;13.244;2022-09-16T22:52:42;11.50;99.90
41944;DHT22;27636;52.610;13.244;2022-09-16T22:57:45;11.40;99.90
41944;DHT22;27636;52.610;13.244;2022-09-16T23:02:48;11.50;99.90
41944;DHT22;27636;52.610;13.244;2022-09-16T23:07:53;11.50;99.90
41944;DHT22;27636;52.610;13.244;2022-09-16T23:12:56;11.50;99.90
41944;DHT22;27636;52.610;13.244;2022-09-16T23:18:01;11.60;99.90
41944;DHT22;27636;52.610;13.244;2022-09-16T23:23:05;11.50;99.90
41944;DHT22;27636;52.610;13.244;2022-09-16T23:28:09;11.60;99.90
41944;DHT22;27636;52.610;13.244;2022-09-16T23:33:12;11.60;99.90
41944;DHT22;27636;52.610;13.244;2022-09-16T23:38:16;11.60;99.90
41944;DHT22;27636;52.610;13.244;2022-09-16T23:43:20;11.60;99.90
41944;DHT22;27636;52.610;13.244;2022-09-16T23:48:23;11.70;99.90
41944;DHT22;27636;52.610;13.244;2022-09-16T23:53:28;11.70;99.90
41944;DHT22;27636;52.610;13.244;2022-09-16T23:58:31;11.70;99.90
